Time;durP1;ratioP1;P1;durP2;ratioP2;P2;SDS_P1;SDS_P2;PMS_P1;PMS_P2;Temp;Humidity;BMP_temperature;BMP_pressure;BME280_temperature;BME280_humidity;BME280_pressure;Samples;Min_cycle;Max_cycle;Signal;HPM_P1;HPM_P2
2022/08/29 00:02:10;;;;;;;4.47;3.80;;;20.90;99.90;;;;;;7403347;19;20162;-83
2022/08/29 00:04:36;;;;;;;5.70;4.57;;;21.00;99.90;;;;;;7400373;19;20582;-84
2022/08/29 00:07:02;;;;;;;5.57;4.07;;;21.00;99.90;;;;;;7402782;19;20171;-83
2022/08/29 00:09:28;;;;;;;5.90;4.72;;;21.00;99.90;;;;;;7402710;19;20161;-85
2022/08/29 00:11:54;;;;;;;5.93;4.55;;;20.70;99.90;;;;;;7401690;19;20139;-85
2022/08/29 00:14:20;;;;;;;6.10;4.55;;;20.30;99.90;;;;;;7401668;19;20134;-84
2022/08/29 00:16:45;;;;;;;6.50;4.32;;;20.10;99.90;;;;;;7397180;19;20139;-84
2022/08/29 00:19:11;;;;;;;6.22;4.80;;;20.10;99.90;;;;;;7396847;19;20146;-84
2022/08/29 00:21:37;;;;;;;6.90;4.68;;;20.10;99.90;;;;;;7396909;19;20142;-84
2022/08/29 00:24:03;;;;;;;6.28;4.95;;;20.40;99.90;;;;;;7397944;19;20142;-84
2022/08/29 00:26:29;;;;;;;8.05;4.97;;;20.50;99.90;;;;;;7395482;19;20143;-84
2022/08/29 00:28:54;;;;;;;5.05;4.53;;;20.70;99.90;;;;;;7394509;19;20139;-84
2022/08/29 00:31:20;;;;;;;5.85;4.93;;;20.70;99.90;;;;;;7396157;19;20134;-85
2022/08/29 00:33:46;;;;;;;5.15;4.60;;;20.50;99.90;;;;;;7396898;19;20151;-84
2022/08/29 00:36:12;;;;;;;5.28;4.25;;;20.60;99.90;;;;;;7396118;19;20150;-85
2022/08/29 00:38:38;;;;;;;5.38;4.78;;;20.40;99.90;;;;;;7395395;19;20717;-85
2022/08/29 00:41:04;;;;;;;8.55;5.60;;;20.10;99.90;;;;;;7391954;19;20174;-83
2022/08/29 00:43:32;;;;;;;6.63;4.93;;;19.90;99.90;;;;;;7395449;19;20165;-83
2022/08/29 00:46:18;;;;;;;7.82;5.07;;;20.10;99.90;;;;;;7394170;19;20174;-85
2022/08/29 00:48:47;;;;;;;4.80;4.30;;;20.10;99.90;;;;;;7394934;19;20488;-85
2022/08/29 00:51:17;;;;;;;6.53;4.75;;;20.20;99.90;;;;;;7394838;19;20772;-83
2022/08/29 00:53:46;;;;;;;6.20;4.63;;;20.10;99.90;;;;;;7393433;19;20187;-84
2022/08/29 00:56:14;;;;;;;6.00;4.72;;;20.00;99.90;;;;;;7394862;19;20131;-85
2022/08/29 00:58:49;;;;;;;5.68;4.95;;;20.30;99.90;;;;;;7395647;19;20159;-84
2022/08/29 01:01:15;;;;;;;7.13;4.47;;;20.50;99.90;;;;;;7397014;19;20137;-82
2022/08/29 01:03:41;;;;;;;7.43;5.20;;;20.40;99.90;;;;;;7393384;19;20183;-83
2022/08/29 01:06:08;;;;;;;5.32;4.47;;;20.50;99.90;;;;;;7394835;19;20146;-84
2022/08/29 01:08:34;;;;;;;5.85;4.35;;;20.50;99.90;;;;;;7394079;19;20139;-84
2022/08/29 01:13:48;;;;;;;5.80;4.47;;;20.50;99.90;;;;;;7396494;19;20250;-83
2022/08/29 01:16:17;;;;;;;7.40;5.10;;;20.50;99.90;;;;;;7397641;19;20229;-84
2022/08/29 01:18:49;;;;;;;7.30;5.03;;;20.50;99.90;;;;;;7395593;19;20498;-84
2022/08/29 01:21:26;;;;;;;6.78;5.57;;;20.30;99.90;;;;;;7394429;19;20135;-82
2022/08/29 01:24:10;;;;;;;5.47;4.60;;;20.40;99.90;;;;;;7396143;19;20141;-84
2022/08/29 01:26:36;;;;;;;5.35;4.53;;;20.50;99.90;;;;;;7395976;19;20142;-84
2022/08/29 01:29:05;;;;;;;9.27;4.70;;;20.50;99.90;;;;;;7392986;19;20143;-84
2022/08/29 01:31:46;;;;;;;5.50;4.72;;;20.10;99.90;;;;;;7395009;19;20168;-84
2022/08/29 01:34:14;;;;;;;5.70;5.10;;;19.80;99.90;;;;;;7394244;19;20146;-84
2022/08/29 01:36:51;;;;;;;5.68;5.03;;;19.80;99.90;;;;;;7395154;19;20160;-84
2022/08/29 01:39:18;;;;;;;8.35;4.82;;;20.00;99.90;;;;;;7395102;19;20257;-83
2022/08/29 01:41:44;;;;;;;5.60;4.63;;;19.90;99.90;;;;;;7397456;19;20210;-84
2022/08/29 01:44:16;;;;;;;8.45;5.30;;;20.00;99.90;;;;;;7393193;19;20185;-84
2022/08/29 01:46:42;;;;;;;6.35;4.95;;;19.90;99.90;;;;;;7395673;19;20138;-84
2022/08/29 01:49:09;;;;;;;5.80;4.80;;;20.10;99.90;;;;;;7393892;19;20324;-85
2022/08/29 01:51:36;;;;;;;5.88;4.82;;;20.30;99.90;;;;;;7393266;19;20138;-84
2022/08/29 01:54:06;;;;;;;6.57;5.32;;;20.20;99.90;;;;;;7394932;19;20142;-84
2022/08/29 01:56:35;;;;;;;8.38;4.97;;;20.20;99.90;;;;;;7393121;19;20134;-84
2022/08/29 01:59:05;;;;;;;6.80;4.95;;;20.40;99.90;;;;;;7395147;19;20162;-83
2022/08/29 02:01:37;;;;;;;5.50;5.00;;;19.90;99.90;;;;;;7393465;19;20148;-84
2022/08/29 02:04:05;;;;;;;6.93;4.88;;;20.00;99.90;;;;;;7394377;19;20533;-82
2022/08/29 02:06:31;;;;;;;7.78;4.47;;;19.90;99.90;;;;;;7394407;19;20135;-84
2022/08/29 02:08:56;;;;;;;5.43;4.65;;;20.00;99.90;;;;;;7390398;19;20153;-84
2022/08/29 02:11:23;;;;;;;7.88;4.93;;;20.20;99.90;;;;;;7396057;19;20576;-84
2022/08/29 02:13:52;;;;;;;6.72;4.10;;;20.40;99.90;;;;;;7393899;19;20167;-84
2022/08/29 02:16:18;;;;;;;6.07;4.25;;;20.40;99.90;;;;;;7394878;19;20147;-85
2022/08/29 02:18:45;;;;;;;5.43;4.57;;;20.50;99.90;;;;;;7393291;19;20135;-85
2022/08/29 02:21:13;;;;;;;7.18;4.82;;;20.40;99.90;;;;;;7390065;19;20138;-84
2022/08/29 02:23:39;;;;;;;6.72;5.15;;;20.40;99.90;;;;;;7393412;19;20150;-86
2022/08/29 02:26:05;;;;;;;7.15;4.63;;;19.90;99.90;;;;;;7393761;19;20225;-84
2022/08/29 02:28:33;;;;;;;7.25;5.15;;;19.60;99.90;;;;;;7391894;19;20142;-84
2022/08/29 02:30:59;;;;;;;6.25;4.90;;;19.60;99.90;;;;;;7391574;19;20134;-84
2022/08/29 02:33:25;;;;;;;7.63;4.90;;;19.70;99.90;;;;;;7391251;19;20166;-85
2022/08/29 02:35:52;;;;;;;10.52;4.85;;;19.70;99.90;;;;;;7389342;19;20172;-84
2022/08/29 02:38:18;;;;;;;5.80;4.43;;;19.90;99.90;;;;;;7393205;19;20147;-84
2022/08/29 02:40:45;;;;;;;4.85;4.35;;;19.90;99.90;;;;;;7390853;19;20134;-84
2022/08/29 02:43:11;;;;;;;7.88;4.88;;;19.80;99.90;;;;;;7392264;19;20161;-82
2022/08/29 02:45:39;;;;;;;6.85;5.05;;;19.90;99.90;;;;;;7394481;19;20163;-84
2022/08/29 02:48:05;;;;;;;7.38;4.57;;;19.80;99.90;;;;;;7393337;19;20126;-84
2022/08/29 02:50:32;;;;;;;6.18;4.38;;;19.80;99.90;;;;;;7391642;19;20194;-84
2022/08/29 02:52:58;;;;;;;5.82;4.15;;;19.70;99.90;;;;;;7392080;19;20130;-83
2022/08/29 02:55:24;;;;;;;5.88;4.40;;;19.40;99.90;;;;;;7395009;19;20134;-84
2022/08/29 02:57:51;;;;;;;8.55;4.55;;;19.20;99.90;;;;;;7391330;19;20165;-83
2022/08/29 03:00:24;;;;;;;7.43;4.50;;;19.00;99.90;;;;;;7391541;19;20142;-84
2022/08/29 03:02:51;;;;;;;7.45;4.57;;;19.10;99.90;;;;;;7392740;19;20150;-83
2022/08/29 03:05:19;;;;;;;6.00;4.55;;;19.00;99.90;;;;;;7393952;19;20599;-84
2022/08/29 03:07:46;;;;;;;6.03;4.70;;;18.90;99.90;;;;;;7393883;19;20130;-83
2022/08/29 03:10:13;;;;;;;4.82;4.32;;;18.60;99.90;;;;;;7397368;19;20155;-85
2022/08/29 03:12:39;;;;;;;6.18;4.47;;;18.70;99.90;;;;;;7398161;19;20144;-85
2022/08/29 03:15:07;;;;;;;5.30;4.43;;;19.00;99.90;;;;;;7399560;19;20127;-84
2022/08/29 03:17:33;;;;;;;5.72;4.50;;;19.00;99.90;;;;;;7397573;19;20138;-85
2022/08/29 03:19:59;;;;;;;5.18;4.00;;;18.90;99.90;;;;;;7398032;19;20159;-86
2022/08/29 03:22:25;;;;;;;5.43;4.30;;;18.60;99.90;;;;;;7399525;19;20151;-84
2022/08/29 03:24:51;;;;;;;5.90;4.60;;;18.40;99.90;;;;;;7398991;19;20481;-84
2022/08/29 03:27:17;;;;;;;5.00;4.10;;;18.50;99.90;;;;;;7399517;19;20147;-84
2022/08/29 03:29:43;;;;;;;6.00;4.38;;;18.50;99.90;;;;;;7399508;19;20194;-85
2022/08/29 03:32:09;;;;;;;5.45;4.22;;;18.80;99.90;;;;;;7398927;19;20153;-84
2022/08/29 03:34:35;;;;;;;5.72;4.25;;;18.70;99.90;;;;;;7400244;19;20123;-85
2022/08/29 03:37:02;;;;;;;5.10;4.25;;;18.70;99.90;;;;;;7398520;19;21793;-85
2022/08/29 03:39:28;;;;;;;6.22;4.07;;;18.60;99.90;;;;;;7397634;19;20137;-86
2022/08/29 03:41:54;;;;;;;5.15;4.28;;;18.80;99.90;;;;;;7398873;19;20142;-85
2022/08/29 03:44:20;;;;;;;6.15;4.20;;;18.70;99.90;;;;;;7400651;19;20134;-84
2022/08/29 03:46:46;;;;;;;5.90;4.43;;;18.90;99.90;;;;;;7400112;19;20131;-82
2022/08/29 03:49:12;;;;;;;6.50;4.45;;;19.30;99.90;;;;;;7398567;19;20145;-84
2022/08/29 03:51:38;;;;;;;5.97;4.50;;;19.40;99.90;;;;;;7397943;19;20121;-85
2022/08/29 03:54:05;;;;;;;5.53;4.38;;;19.60;99.90;;;;;;7397523;19;20146;-83
2022/08/29 03:56:31;;;;;;;6.35;4.20;;;19.70;99.90;;;;;;7401964;19;20186;-83
2022/08/29 03:58:57;;;;;;;4.57;4.15;;;19.70;99.90;;;;;;7398416;19;20126;-83
2022/08/29 04:01:27;;;;;;;6.22;4.47;;;19.20;99.90;;;;;;7396021;19;20206;-84
2022/08/29 04:03:55;;;;;;;5.72;4.20;;;18.80;99.90;;;;;;7397527;19;20146;-84
2022/08/29 04:06:21;;;;;;;5.55;3.90;;;18.60;99.90;;;;;;7395815;19;20142;-84
2022/08/29 04:08:48;;;;;;;5.38;4.40;;;18.70;99.90;;;;;;7396526;19;20468;-84
2022/08/29 04:11:15;;;;;;;5.53;3.72;;;18.90;99.90;;;;;;7397499;19;20230;-83
2022/08/29 04:13:41;;;;;;;6.65;4.55;;;18.80;99.90;;;;;;7396305;19;20476;-84
2022/08/29 04:16:13;;;;;;;5.00;4.43;;;19.00;99.90;;;;;;7399076;19;20150;-84
2022/08/29 04:18:39;;;;;;;5.93;4.40;;;19.30;99.90;;;;;;7398212;19;20202;-84
2022/08/29 04:21:06;;;;;;;6.25;4.53;;;19.40;99.90;;;;;;7394400;19;20138;-85
2022/08/29 04:23:34;;;;;;;5.53;4.47;;;19.40;99.90;;;;;;7396754;19;20510;-84
2022/08/29 04:26:00;;;;;;;5.72;3.90;;;19.10;99.90;;;;;;7396969;19;20237;-84
2022/08/29 04:28:25;;;;;;;5.60;4.43;;;19.20;99.90;;;;;;7397148;19;20677;-85
2022/08/29 04:30:53;;;;;;;4.30;3.90;;;19.30;99.90;;;;;;7398657;19;20160;-85
2022/08/29 04:33:24;;;;;;;6.07;4.45;;;18.70;99.90;;;;;;7397878;19;20759;-84
2022/08/29 04:35:51;;;;;;;5.13;3.67;;;18.50;99.90;;;;;;7395934;19;20163;-85
2022/08/29 04:38:17;;;;;;;7.00;4.18;;;18.40;99.90;;;;;;7397439;19;20163;-84
2022/08/29 04:40:44;;;;;;;5.60;4.53;;;18.40;99.90;;;;;;7396712;19;20138;-85
2022/08/29 04:43:10;;;;;;;4.95;4.45;;;18.40;99.90;;;;;;7397078;19;20154;-84
2022/08/29 04:45:39;;;;;;;6.00;4.03;;;18.50;99.90;;;;;;7394522;19;20153;-85
2022/08/29 04:48:05;;;;;;;6.80;4.60;;;18.60;99.90;;;;;;7397200;19;20142;-85
2022/08/29 04:50:31;;;;;;;7.57;4.68;;;18.80;99.90;;;;;;7396475;19;20145;-85
2022/08/29 04:52:57;;;;;;;4.95;4.38;;;18.90;99.90;;;;;;7397719;19;20226;-85
2022/08/29 04:55:23;;;;;;;7.70;4.68;;;19.00;99.90;;;;;;7397532;19;20143;-84
2022/08/29 04:57:51;;;;;;;11.02;4.68;;;19.20;99.90;;;;;;7396640;19;20145;-84
2022/08/29 05:00:22;;;;;;;5.22;4.00;;;19.30;99.90;;;;;;7393166;19;20131;-84
2022/08/29 05:02:47;;;;;;;6.32;4.57;;;19.30;99.90;;;;;;7395283;19;21602;-84
2022/08/29 05:05:14;;;;;;;5.72;4.47;;;19.20;99.90;;;;;;7400382;19;20144;-85
2022/08/29 05:07:41;;;;;;;7.55;5.20;;;19.40;99.90;;;;;;7394745;19;20150;-85
2022/08/29 05:10:18;;;;;;;7.55;5.00;;;19.50;99.90;;;;;;7398391;19;20138;-85
2022/08/29 05:12:44;;;;;;;6.75;4.90;;;19.60;99.90;;;;;;7397477;19;20139;-85
2022/08/29 05:15:11;;;;;;;7.68;5.10;;;19.60;99.90;;;;;;7397171;19;20150;-85
2022/08/29 05:17:37;;;;;;;6.22;4.55;;;19.60;99.90;;;;;;7394859;19;20135;-85
2022/08/29 05:20:06;;;;;;;5.43;4.47;;;19.50;99.90;;;;;;7397136;19;20142;-86
2022/08/29 05:22:32;;;;;;;5.78;4.45;;;19.30;99.90;;;;;;7397034;19;20550;-86
2022/08/29 05:24:58;;;;;;;5.85;4.78;;;19.40;99.90;;;;;;7396097;19;20214;-84
2022/08/29 05:27:24;;;;;;;7.38;4.78;;;19.40;99.90;;;;;;7399174;19;20131;-83
2022/08/29 05:29:50;;;;;;;5.20;4.30;;;19.40;99.90;;;;;;7396578;19;20147;-85
2022/08/29 05:32:18;;;;;;;4.90;4.03;;;19.50;99.90;;;;;;7394337;19;20146;-85
2022/08/29 05:34:45;;;;;;;8.45;4.30;;;19.60;99.90;;;;;;7396250;19;20496;-86
2022/08/29 05:37:14;;;;;;;6.93;4.55;;;19.50;99.90;;;;;;7397394;19;20816;-83
2022/08/29 05:39:41;;;;;;;6.32;4.57;;;19.60;99.90;;;;;;7397135;19;20233;-85
2022/08/29 05:42:08;;;;;;;5.85;4.32;;;19.60;99.90;;;;;;7395071;19;20153;-84
2022/08/29 05:44:35;;;;;;;6.43;4.53;;;19.60;99.90;;;;;;7395866;19;20221;-85
2022/08/29 05:47:06;;;;;;;5.75;3.97;;;19.50;99.90;;;;;;7396634;19;20150;-85
2022/08/29 05:49:33;;;;;;;6.95;4.50;;;19.50;99.90;;;;;;7396395;19;20154;-80
2022/08/29 05:51:59;;;;;;;6.47;4.30;;;19.50;99.90;;;;;;7392363;19;20127;-80
2022/08/29 05:54:25;;;;;;;6.10;4.30;;;19.50;99.90;;;;;;7393280;19;20476;-81
2022/08/29 05:56:51;;;;;;;6.53;3.97;;;19.60;99.90;;;;;;7393085;19;20593;-80
2022/08/29 05:59:20;;;;;;;7.13;4.47;;;19.60;99.90;;;;;;7393053;19;20155;-80
2022/08/29 06:01:46;;;;;;;5.07;3.95;;;19.60;99.90;;;;;;7388349;19;20145;-78
2022/08/29 06:04:12;;;;;;;6.72;4.13;;;19.60;99.90;;;;;;7391129;19;20664;-78
2022/08/29 06:06:39;;;;;;;5.68;3.72;;;19.60;99.90;;;;;;7393533;19;20135;-77
2022/08/29 06:09:07;;;;;;;5.63;4.10;;;19.60;99.90;;;;;;7389221;19;20139;-76
2022/08/29 06:11:33;;;;;;;6.20;3.83;;;19.20;99.90;;;;;;7390792;19;20155;-77
2022/08/29 06:14:00;;;;;;;11.13;7.43;;;19.10;99.90;;;;;;7391959;19;20147;-78
2022/08/29 06:16:27;;;;;;;5.78;4.57;;;19.10;99.90;;;;;;7391981;19;20139;-78
2022/08/29 06:18:53;;;;;;;7.47;4.35;;;19.10;99.90;;;;;;7393679;19;20134;-78
2022/08/29 06:21:20;;;;;;;5.72;4.65;;;19.40;99.90;;;;;;7388392;19;20645;-77
2022/08/29 06:23:46;;;;;;;8.27;4.85;;;19.60;99.90;;;;;;7392006;19;20145;-80
2022/08/29 06:26:13;;;;;;;6.13;4.43;;;19.70;99.90;;;;;;7391238;19;20158;-79
2022/08/29 06:28:44;;;;;;;6.50;4.80;;;19.70;99.90;;;;;;7391178;19;20593;-79
2022/08/29 06:31:26;;;;;;;7.00;4.90;;;19.80;99.90;;;;;;7392722;19;20158;-79
2022/08/29 06:33:58;;;;;;;5.70;4.45;;;19.80;99.90;;;;;;7388208;19;20134;-81
2022/08/29 06:36:25;;;;;;;9.05;4.03;;;19.70;99.90;;;;;;7390266;19;20146;-76
2022/08/29 06:38:56;;;;;;;9.02;4.57;;;19.80;99.90;;;;;;7389320;19;20692;-77
2022/08/29 06:41:23;;;;;;;7.25;4.55;;;19.70;99.90;;;;;;7392654;19;20134;-79
2022/08/29 06:43:49;;;;;;;7.13;4.85;;;19.80;99.90;;;;;;7392538;19;20158;-78
2022/08/29 06:46:22;;;;;;;8.68;4.57;;;19.80;99.90;;;;;;7392810;19;20943;-79
2022/08/29 06:48:48;;;;;;;7.72;4.88;;;19.60;99.90;;;;;;7389363;19;20166;-79
2022/08/29 06:51:14;;;;;;;7.45;4.95;;;19.80;99.90;;;;;;7391572;19;20155;-80
2022/08/29 06:53:40;;;;;;;6.72;4.55;;;19.70;99.90;;;;;;7393750;19;20247;-79
2022/08/29 06:56:06;;;;;;;6.85;4.55;;;19.30;99.90;;;;;;7392312;19;20139;-79
2022/08/29 06:58:33;;;;;;;9.20;4.70;;;19.50;99.90;;;;;;7390998;19;20165;-77
2022/08/29 07:01:08;;;;;;;6.35;4.65;;;19.80;99.90;;;;;;7386604;19;20616;-79
2022/08/29 07:03:34;;;;;;;5.93;4.80;;;19.80;99.90;;;;;;7392717;19;20181;-78
2022/08/29 07:06:00;;;;;;;6.40;4.10;;;19.70;99.90;;;;;;7396675;19;20131;-78
2022/08/29 07:08:26;;;;;;;6.38;4.55;;;20.00;99.90;;;;;;7392674;19;20153;-79
2022/08/29 07:10:52;;;;;;;7.88;4.28;;;20.20;99.90;;;;;;7395250;19;20141;-81
2022/08/29 07:13:18;;;;;;;6.53;5.40;;;20.50;99.90;;;;;;7395875;19;20143;-80
2022/08/29 07:15:43;;;;;;;6.38;4.85;;;20.60;99.90;;;;;;7393735;19;20139;-79
2022/08/29 07:18:09;;;;;;;6.38;4.55;;;20.80;99.90;;;;;;7396760;19;20143;-81
2022/08/29 07:20:38;;;;;;;7.68;4.63;;;21.10;99.90;;;;;;7393909;19;20475;-83
2022/08/29 07:23:05;;;;;;;6.32;5.18;;;21.50;99.90;;;;;;7397103;19;20171;-82
2022/08/29 07:25:31;;;;;;;6.22;4.82;;;21.70;99.90;;;;;;7395314;19;20196;-85
2022/08/29 07:27:57;;;;;;;6.95;5.03;;;21.80;99.90;;;;;;7395231;19;20143;-83
2022/08/29 07:30:23;;;;;;;7.75;5.70;;;21.90;99.90;;;;;;7392036;19;20143;-79
2022/08/29 07:32:49;;;;;;;7.95;5.05;;;22.10;99.90;;;;;;7391815;19;20639;-79
2022/08/29 07:35:16;;;;;;;7.50;5.15;;;22.20;99.90;;;;;;7391777;19;20150;-79
2022/08/29 07:37:42;;;;;;;7.32;5.10;;;22.50;99.90;;;;;;7390124;19;20167;-80
2022/08/29 07:40:11;;;;;;;7.55;5.40;;;22.90;99.90;;;;;;7389725;19;20159;-81
2022/08/29 07:42:37;;;;;;;7.07;4.97;;;23.20;99.90;;;;;;7392644;19;20149;-81
2022/08/29 07:45:08;;;;;;;5.63;4.55;;;23.70;99.90;;;;;;7393048;19;20135;-80
2022/08/29 07:47:34;;;;;;;10.05;5.40;;;24.00;99.90;;;;;;7390607;19;20139;-80
2022/08/29 07:50:07;;;;;;;8.60;5.20;;;24.40;99.90;;;;;;7391041;19;20152;-80
2022/08/29 07:52:33;;;;;;;5.38;4.43;;;24.70;99.90;;;;;;7389776;19;20134;-79
2022/08/29 07:54:59;;;;;;;7.25;4.85;;;24.90;99.90;;;;;;7389110;19;20130;-77
2022/08/29 07:57:25;;;;;;;7.50;4.75;;;25.20;99.90;;;;;;7394999;19;20207;-80
2022/08/29 07:59:51;;;;;;;6.30;4.90;;;25.20;99.90;;;;;;7394939;19;20134;-81
2022/08/29 08:02:17;;;;;;;6.13;4.70;;;25.20;99.90;;;;;;7394436;19;20465;-78
2022/08/29 08:04:44;;;;;;;5.82;4.78;;;25.20;99.90;;;;;;7392269;19;20161;-80
2022/08/29 08:07:10;;;;;;;7.97;4.85;;;25.20;99.90;;;;;;7395267;19;20278;-79
2022/08/29 08:09:36;;;;;;;9.57;5.47;;;25.60;99.90;;;;;;7396630;19;20225;-80
2022/08/29 08:12:04;;;;;;;6.78;5.30;;;25.40;99.90;;;;;;7396617;19;20173;-81
2022/08/29 08:14:32;;;;;;;5.25;4.70;;;25.20;99.90;;;;;;7397266;19;20146;-79
2022/08/29 08:16:58;;;;;;;7.97;5.07;;;25.20;99.90;;;;;;7397687;19;20139;-80
2022/08/29 08:19:24;;;;;;;6.53;5.28;;;25.10;99.90;;;;;;7397099;19;20131;-80
2022/08/29 08:21:50;;;;;;;7.57;5.15;;;24.80;99.90;;;;;;7397145;19;20146;-80
2022/08/29 08:24:17;;;;;;;6.97;5.07;;;24.60;99.90;;;;;;7395697;19;20158;-81
2022/08/29 08:26:44;;;;;;;6.40;4.88;;;24.40;99.90;;;;;;7397265;19;20127;-79
2022/08/29 08:29:11;;;;;;;6.97;5.22;;;24.40;99.90;;;;;;7394542;19;20202;-81
2022/08/29 08:31:46;;;;;;;7.90;5.38;;;24.40;99.90;;;;;;7396307;19;20138;-81
2022/08/29 08:34:14;;;;;;;6.63;5.22;;;24.50;99.90;;;;;;7395420;19;20599;-80
2022/08/29 08:36:41;;;;;;;7.13;5.25;;;24.20;99.90;;;;;;7392656;19;20478;-82
2022/08/29 08:39:08;;;;;;;6.50;5.35;;;24.00;99.90;;;;;;7393858;19;20527;-81
2022/08/29 08:41:49;;;;;;;6.93;5.07;;;23.80;99.90;;;;;;7396204;19;20475;-80
2022/08/29 08:44:21;;;;;;;6.82;4.82;;;23.80;99.90;;;;;;7398006;19;20186;-81
2022/08/29 08:46:51;;;;;;;9.07;5.15;;;23.70;99.90;;;;;;7393686;19;20680;-81
2022/08/29 08:49:39;;;;;;;8.25;5.57;;;23.70;99.90;;;;;;7394932;19;20138;-82
2022/08/29 08:52:11;;;;;;;6.15;5.00;;;23.60;99.90;;;;;;7396770;19;20489;-81
2022/08/29 08:54:48;;;;;;;7.25;5.10;;;23.60;99.90;;;;;;7393420;19;20134;-81
2022/08/29 08:57:14;;;;;;;7.55;4.43;;;23.60;99.90;;;;;;7389610;19;20396;-82
2022/08/29 08:59:43;;;;;;;8.55;5.18;;;23.60;99.90;;;;;;7393256;19;20147;-81
2022/08/29 09:02:34;;;;;;;9.70;4.93;;;23.70;99.90;;;;;;7393093;19;20723;-87
2022/08/29 09:05:12;;;;;;;9.18;5.13;;;23.70;99.90;;;;;;7394500;19;20150;-80
2022/08/29 09:07:47;;;;;;;10.55;5.18;;;23.70;99.90;;;;;;7393743;19;20134;-80
2022/08/29 09:10:38;;;;;;;6.90;4.85;;;23.80;99.90;;;;;;7395470;19;20150;-82
2022/08/29 09:13:39;;;;;;;7.53;4.97;;;23.90;99.90;;;;;;7393850;19;20175;-81
2022/08/29 09:16:15;;;;;;;7.43;5.45;;;24.10;99.90;;;;;;7389515;19;20186;-81
2022/08/29 09:18:45;;;;;;;7.78;4.38;;;24.20;99.90;;;;;;7392891;19;20158;-81
2022/08/29 09:21:18;;;;;;;7.25;4.82;;;24.30;99.90;;;;;;7389148;19;20146;-80
2022/08/29 09:23:50;;;;;;;5.63;4.15;;;24.40;99.90;;;;;;7394618;19;20168;-78
2022/08/29 09:26:18;;;;;;;7.22;4.43;;;24.30;99.90;;;;;;7392790;19;20503;-77
2022/08/29 09:28:44;;;;;;;8.95;4.60;;;24.40;99.90;;;;;;7389425;19;20138;-81
2022/08/29 09:31:22;;;;;;;6.50;5.05;;;24.30;99.90;;;;;;7395317;19;20145;-81
2022/08/29 09:33:55;;;;;;;7.00;4.60;;;24.30;99.90;;;;;;7393176;19;20141;-79
2022/08/29 09:36:42;;;;;;;7.35;4.78;;;24.30;99.90;;;;;;7394156;19;20147;-81
2022/08/29 09:39:30;;;;;;;6.45;4.00;;;24.40;99.90;;;;;;7389025;19;20167;-79
2022/08/29 09:42:03;;;;;;;5.85;4.40;;;24.40;99.90;;;;;;7393415;19;20135;-80
2022/08/29 09:44:32;;;;;;;5.10;4.30;;;24.40;99.90;;;;;;7396137;19;20206;-80
2022/08/29 09:47:17;;;;;;;8.30;5.45;;;24.50;99.90;;;;;;7392141;19;20165;-81
2022/08/29 09:50:01;;;;;;;9.52;5.50;;;24.60;99.90;;;;;;7390706;19;20145;-78
2022/08/29 09:52:27;;;;;;;9.70;4.75;;;24.60;99.90;;;;;;7392245;19;20146;-81
2022/08/29 09:54:53;;;;;;;6.15;5.20;;;24.70;99.90;;;;;;7391777;19;20131;-81
2022/08/29 09:57:23;;;;;;;5.07;4.10;;;24.70;99.90;;;;;;7392295;19;20138;-78
2022/08/29 10:00:05;;;;;;;6.45;4.38;;;24.70;99.90;;;;;;7389809;19;20134;-79
2022/08/29 10:02:47;;;;;;;6.07;4.63;;;24.70;99.90;;;;;;7391675;19;20142;-80
2022/08/29 10:05:40;;;;;;;5.82;4.28;;;24.70;99.90;;;;;;7391057;19;20135;-80
2022/08/29 10:08:25;;;;;;;6.72;4.30;;;24.70;99.90;;;;;;7390187;19;20525;-80
2022/08/29 10:10:56;;;;;;;6.50;4.35;;;24.80;99.90;;;;;;7390466;19;20154;-79
2022/08/29 10:13:32;;;;;;;6.25;4.00;;;25.00;99.90;;;;;;7389705;19;20157;-80
2022/08/29 10:16:17;;;;;;;5.65;3.20;;;25.00;99.90;;;;;;7392943;19;20134;-81
2022/08/29 10:18:51;;;;;;;5.85;3.72;;;25.10;99.90;;;;;;7391446;19;20139;-80
2022/08/29 10:21:25;;;;;;;5.15;3.35;;;25.20;99.90;;;;;;7388498;19;20715;-80
2022/08/29 10:23:54;;;;;;;7.70;4.35;;;25.20;99.90;;;;;;7391021;19;20258;-78
2022/08/29 10:26:35;;;;;;;4.45;3.70;;;25.40;99.90;;;;;;7391148;19;20147;-79
2022/08/29 10:29:20;;;;;;;5.90;3.70;;;25.40;99.90;;;;;;7392617;19;20134;-81
2022/08/29 10:31:55;;;;;;;5.88;3.92;;;25.60;99.90;;;;;;7387355;19;20475;-82
2022/08/29 10:34:55;;;;;;;3.95;3.40;;;25.70;99.90;;;;;;7386190;19;20149;-80
2022/08/29 10:37:27;;;;;;;6.65;3.80;;;25.70;99.90;;;;;;7387907;19;20154;-81
2022/08/29 10:40:02;;;;;;;4.65;3.63;;;25.60;99.90;;;;;;7387234;19;20134;-79
2022/08/29 10:42:32;;;;;;;4.88;3.72;;;25.60;99.90;;;;;;7387389;19;21030;-80
2022/08/29 10:45:24;;;;;;;5.78;3.40;;;25.70;99.90;;;;;;7389289;19;20634;-80
2022/08/29 10:48:10;;;;;;;4.38;3.53;;;25.80;99.90;;;;;;7390411;19;20155;-81
2022/08/29 10:50:55;;;;;;;3.63;3.33;;;25.80;99.90;;;;;;7390659;19;20138;-80
2022/08/29 10:53:36;;;;;;;5.85;3.45;;;25.90;99.90;;;;;;7392330;19;20123;-80
2022/08/29 10:56:13;;;;;;;5.30;3.72;;;25.90;99.90;;;;;;7394456;19;20237;-80
2022/08/29 10:59:05;;;;;;;4.30;3.30;;;25.80;99.90;;;;;;7389362;19;20804;-80
2022/08/29 11:01:48;;;;;;;5.60;3.42;;;26.00;99.90;;;;;;7389402;19;20131;-81
2022/08/29 11:04:21;;;;;;;5.20;3.38;;;26.10;99.90;;;;;;7389912;19;20153;-80
2022/08/29 11:06:54;;;;;;;4.35;2.97;;;26.10;99.90;;;;;;7386436;19;20510;-81
2022/08/29 11:09:28;;;;;;;4.65;3.70;;;26.20;99.90;;;;;;7391015;19;20162;-81
2022/08/29 11:12:17;;;;;;;6.25;3.35;;;26.20;99.90;;;;;;7389763;19;20148;-80
2022/08/29 11:15:00;;;;;;;4.68;3.20;;;26.00;99.90;;;;;;7387409;19;20138;-80
2022/08/29 11:17:33;;;;;;;6.72;4.05;;;26.00;99.90;;;;;;7387334;19;20175;-81
2022/08/29 11:20:28;;;;;;;5.53;3.03;;;26.00;99.90;;;;;;7389449;19;20134;-80
2022/08/29 11:23:07;;;;;;;5.80;3.00;;;26.00;99.90;;;;;;7388034;19;20158;-81
2022/08/29 11:25:35;;;;;;;4.00;3.10;;;26.00;99.90;;;;;;7387621;19;20217;-80
2022/08/29 11:28:04;;;;;;;5.95;3.20;;;26.00;99.90;;;;;;7389170;19;20131;-81
2022/08/29 11:31:00;;;;;;;3.35;3.03;;;25.90;99.90;;;;;;7386403;19;20131;-80
2022/08/29 11:34:02;;;;;;;5.47;3.05;;;25.90;99.90;;;;;;7397360;19;20151;-81
2022/08/29 11:36:56;;;;;;;5.07;3.47;;;25.90;99.90;;;;;;7397741;19;20541;-85
2022/08/29 11:39:47;;;;;;;4.88;2.85;;;26.10;99.90;;;;;;7397794;19;20136;-82
2022/08/29 11:42:15;;;;;;;4.40;2.85;;;26.30;99.90;;;;;;7395039;19;20159;-80
2022/08/29 11:44:54;;;;;;;5.95;2.95;;;26.10;99.90;;;;;;7397254;19;20142;-81
2022/08/29 11:47:32;;;;;;;7.95;3.15;;;26.30;99.90;;;;;;7399596;19;20131;-81
2022/08/29 11:50:16;;;;;;;5.75;2.75;;;26.40;99.90;;;;;;7397537;19;20157;-81
2022/08/29 11:53:11;;;;;;;5.65;3.08;;;26.30;99.90;;;;;;7395853;19;20146;-82
2022/08/29 11:55:39;;;;;;;4.22;2.95;;;26.40;99.90;;;;;;7396794;19;20205;-82
2022/08/29 11:58:27;;;;;;;5.07;3.15;;;26.50;99.90;;;;;;7398322;19;20139;-81
2022/08/29 12:00:55;;;;;;;5.65;3.58;;;26.50;99.90;;;;;;7394475;19;20302;-81
2022/08/29 12:03:33;;;;;;;5.43;3.50;;;26.50;99.90;;;;;;7395315;19;20150;-81
2022/08/29 12:06:17;;;;;;;4.32;3.30;;;26.60;99.90;;;;;;7398229;19;20135;-82
2022/08/29 12:09:01;;;;;;;5.18;2.70;;;26.60;99.90;;;;;;7397956;19;20148;-82
2022/08/29 12:11:58;;;;;;;4.78;2.90;;;26.60;99.90;;;;;;7398694;19;20141;-81
2022/08/29 12:14:31;;;;;;;3.58;2.58;;;26.60;99.90;;;;;;7396535;19;20150;-81
2022/08/29 12:17:01;;;;;;;6.05;3.03;;;26.60;99.90;;;;;;7400238;19;20134;-81
2022/08/29 12:19:47;;;;;;;3.95;2.67;;;26.70;99.90;;;;;;7390804;19;20741;-82
2022/08/29 12:22:50;;;;;;;6.65;3.20;;;26.70;99.90;;;;;;7398492;19;20637;-81
2022/08/29 12:25:37;;;;;;;4.65;2.72;;;26.70;99.90;;;;;;7397075;19;20595;-82
2022/08/29 12:28:05;;;;;;;3.38;2.95;;;26.80;99.90;;;;;;7397176;19;20359;-82
2022/08/29 12:30:41;;;;;;;4.32;2.85;;;26.70;99.90;;;;;;7399599;19;20246;-82
2022/08/29 12:33:25;;;;;;;3.22;2.80;;;26.80;99.90;;;;;;7402014;19;20155;-81
2022/08/29 12:36:23;;;;;;;3.75;3.00;;;26.90;99.90;;;;;;7401753;19;20133;-82
2022/08/29 12:39:13;;;;;;;3.92;2.70;;;27.00;99.90;;;;;;7401932;19;20222;-80
2022/08/29 12:42:10;;;;;;;4.32;2.53;;;27.00;99.90;;;;;;7400976;19;20142;-81
2022/08/29 12:44:42;;;;;;;4.70;3.40;;;27.20;99.90;;;;;;7399963;19;20447;-81
2022/08/29 12:47:31;;;;;;;5.90;2.70;;;27.20;99.90;;;;;;7396365;19;20162;-82
2022/08/29 12:50:01;;;;;;;2.88;2.45;;;27.00;99.90;;;;;;7394585;19;20150;-82
2022/08/29 12:52:34;;;;;;;3.60;2.90;;;27.10;99.90;;;;;;7394789;19;20139;-81
2022/08/29 12:55:24;;;;;;;2.63;2.22;;;27.10;99.90;;;;;;7398622;19;20169;-84
2022/08/29 12:57:51;;;;;;;3.65;2.72;;;27.10;99.90;;;;;;7396706;19;20149;-84
2022/08/29 13:00:26;;;;;;;4.70;2.88;;;27.30;99.90;;;;;;7393445;19;20126;-84
2022/08/29 13:02:58;;;;;;;4.47;2.90;;;27.30;99.90;;;;;;7393792;19;20655;-82
2022/08/29 13:05:25;;;;;;;3.60;2.90;;;27.30;99.90;;;;;;7400030;19;20643;-83
2022/08/29 13:08:06;;;;;;;4.85;2.65;;;27.40;99.90;;;;;;7393446;19;20229;-81
2022/08/29 13:10:37;;;;;;;4.25;2.60;;;27.40;99.60;;;;;;7393764;19;20191;-83